createdAt,value
2019-02-20T00:00:54.249Z,7.40
2019-02-20T00:03:22.636Z,7.40
2019-02-20T00:05:50.572Z,7.40
2019-02-20T00:08:18.751Z,7.40
2019-02-20T00:10:47.320Z,7.40
2019-02-20T00:13:15.693Z,7.40
2019-02-20T00:15:44.537Z,7.30
2019-02-20T00:18:12.428Z,7.30
2019-02-20T00:20:40.743Z,7.20
2019-02-20T00:23:08.640Z,7.30
2019-02-20T00:25:36.637Z,7.20
2019-02-20T00:28:04.689Z,7.20
2019-02-20T00:30:32.782Z,7.10
2019-02-20T00:33:01.157Z,7.20
2019-02-20T00:35:33.021Z,7.30
2019-02-20T00:38:00.027Z,7.20
2019-02-20T00:40:27.941Z,7.20
2019-02-20T00:42:56.033Z,7.20
2019-02-20T00:45:35.915Z,7.10
2019-02-20T00:48:29.321Z,7.10
2019-02-20T00:51:06.430Z,7.10
2019-02-20T00:53:41.266Z,7.10
2019-02-20T00:56:09.459Z,7.00
2019-02-20T00:58:37.361Z,7.00
2019-02-20T01:01:05.349Z,7.00
2019-02-20T01:03:33.265Z,6.90
2019-02-20T01:06:02.025Z,6.90
2019-02-20T01:08:30.305Z,7.00
2019-02-20T01:10:58.613Z,7.00
2019-02-20T01:13:26.502Z,7.10
2019-02-20T01:15:54.509Z,7.10
2019-02-20T01:18:22.414Z,7.20
2019-02-20T01:20:50.323Z,7.30
2019-02-20T01:23:18.341Z,7.40
2019-02-20T01:25:46.242Z,7.40
2019-02-20T01:28:14.237Z,7.50
2019-02-20T01:30:42.188Z,7.60
2019-02-20T01:33:10.080Z,7.60
2019-02-20T01:35:38.381Z,7.60
2019-02-20T01:38:06.353Z,7.60
2019-02-20T01:40:34.263Z,7.70
2019-02-20T01:43:02.140Z,7.60
2019-02-20T01:45:30.153Z,7.70
2019-02-20T01:47:58.286Z,7.70
2019-02-20T01:50:26.200Z,7.60
2019-02-20T01:52:54.270Z,7.60
2019-02-20T01:55:22.263Z,7.70
2019-02-20T01:57:50.153Z,7.70
2019-02-20T02:00:18.062Z,7.80
2019-02-20T02:02:45.965Z,7.80
2019-02-20T02:05:15.862Z,7.70
2019-02-20T02:07:43.713Z,7.70
2019-02-20T02:10:11.865Z,7.70
2019-02-20T02:12:39.769Z,7.70
2019-02-20T02:15:07.882Z,7.70
2019-02-20T02:17:35.933Z,7.70
2019-02-20T02:20:04.512Z,7.80
2019-02-20T02:22:32.649Z,7.70
2019-02-20T02:25:00.743Z,7.60
2019-02-20T02:27:28.656Z,7.70
2019-02-20T02:29:56.557Z,7.70
2019-02-20T02:32:24.546Z,7.70
2019-02-20T02:34:52.459Z,7.60
2019-02-20T02:37:20.391Z,7.60
2019-02-20T02:39:48.381Z,7.70
2019-02-20T02:42:16.324Z,7.70
2019-02-20T02:44:44.529Z,7.60
2019-02-20T02:47:12.449Z,7.70
2019-02-20T02:49:40.367Z,7.70
2019-02-20T02:52:08.320Z,7.70
2019-02-20T02:54:36.217Z,7.60
2019-02-20T02:57:04.250Z,7.50
2019-02-20T02:59:32.153Z,7.50
2019-02-20T03:02:00.249Z,7.40
2019-02-20T03:04:28.404Z,7.50
2019-02-20T03:06:56.303Z,7.40
2019-02-20T03:09:24.300Z,7.40
2019-02-20T03:11:53.699Z,7.50
2019-02-20T03:14:21.709Z,7.50
2019-02-20T03:16:49.618Z,7.60
2019-02-20T03:19:17.538Z,7.60
2019-02-20T03:21:45.562Z,7.70
2019-02-20T03:24:13.567Z,7.70
2019-02-20T03:26:42.009Z,7.70
2019-02-20T03:29:09.917Z,7.60
2019-02-20T03:31:38.113Z,7.60
2019-02-20T03:34:08.803Z,7.50
2019-02-20T03:36:35.921Z,7.60
2019-02-20T03:39:07.225Z,7.60
2019-02-20T03:41:35.387Z,7.70
2019-02-20T03:44:03.574Z,7.60
2019-02-20T03:46:32.268Z,7.70
2019-02-20T03:49:00.801Z,7.60
2019-02-20T03:51:29.286Z,7.50
2019-02-20T03:53:57.683Z,7.50
2019-02-20T03:56:25.905Z,7.40
2019-02-20T03:58:54.446Z,7.40
2019-02-20T04:01:26.546Z,7.40
2019-02-20T04:03:55.429Z,7.40
2019-02-20T04:06:24.182Z,7.40
2019-02-20T04:08:52.641Z,7.40
2019-02-20T04:11:20.810Z,7.50
2019-02-20T04:13:49.539Z,7.40
2019-02-20T04:16:17.965Z,7.40
2019-02-20T04:18:46.716Z,7.40
2019-02-20T04:21:15.461Z,7.30
2019-02-20T04:23:44.358Z,7.40
2019-02-20T04:26:12.757Z,7.30
2019-02-20T04:28:41.496Z,7.40
2019-02-20T04:31:09.905Z,7.50
2019-02-20T04:33:38.325Z,7.40
2019-02-20T04:36:06.738Z,7.40
2019-02-20T04:38:35.145Z,7.40
2019-02-20T04:41:04.074Z,7.40
2019-02-20T04:43:32.721Z,7.30
2019-02-20T04:46:01.169Z,7.30
2019-02-20T04:48:29.813Z,7.40
2019-02-20T04:50:58.054Z,7.30
2019-02-20T04:53:26.716Z,7.30
2019-02-20T04:55:55.381Z,7.30
2019-02-20T04:58:23.822Z,7.20
2019-02-20T05:00:52.562Z,7.20
2019-02-20T05:03:23.147Z,7.20
2019-02-20T05:05:51.282Z,7.40
2019-02-20T05:08:19.468Z,7.40
2019-02-20T05:10:47.378Z,7.30
2019-02-20T05:13:15.281Z,7.40
2019-02-20T05:15:43.208Z,7.30
2019-02-20T05:18:11.111Z,7.50
2019-02-20T05:20:39.046Z,7.50
2019-02-20T05:23:06.943Z,7.60
2019-02-20T05:25:36.141Z,7.70
2019-02-20T05:28:04.528Z,7.60
2019-02-20T05:30:32.938Z,7.70
2019-02-20T05:33:01.384Z,7.80
2019-02-20T05:35:29.873Z,7.70
2019-02-20T05:37:58.009Z,7.70
2019-02-20T05:40:26.415Z,7.60
2019-02-20T05:42:55.093Z,7.60
2019-02-20T05:45:23.735Z,7.50
2019-02-20T05:47:51.978Z,7.50
2019-02-20T05:50:21.881Z,7.50
2019-02-20T05:52:50.533Z,7.70
2019-02-20T05:55:19.202Z,7.60
2019-02-20T05:57:47.352Z,7.60
2019-02-20T06:00:15.606Z,7.50
2019-02-20T06:02:44.239Z,7.50
2019-02-20T06:05:12.833Z,7.50
2019-02-20T06:07:41.857Z,7.50
2019-02-20T06:10:10.126Z,7.40
2019-02-20T06:12:44.314Z,7.40
2019-02-20T06:15:11.598Z,7.30
2019-02-20T06:17:39.010Z,7.30
2019-02-20T06:20:07.413Z,7.20
2019-02-20T06:22:35.690Z,7.20
2019-02-20T06:25:06.915Z,7.10
2019-02-20T06:27:34.801Z,7.10
2019-02-20T06:30:03.898Z,7.10
2019-02-20T06:32:31.538Z,7.00
2019-02-20T06:35:01.833Z,7.00
2019-02-20T06:37:29.529Z,7.00
2019-02-20T06:39:58.367Z,7.00
2019-02-20T06:42:26.269Z,7.00
2019-02-20T06:44:55.202Z,7.00
2019-02-20T06:47:23.514Z,7.00
2019-02-20T06:49:51.425Z,7.00
2019-02-20T06:52:19.589Z,7.10
2019-02-20T06:54:53.973Z,7.10
2019-02-20T06:57:18.867Z,7.10
2019-02-20T06:59:47.306Z,7.20
2019-02-20T07:02:15.913Z,7.20
2019-02-20T07:05:22.716Z,7.30
2019-02-20T07:08:06.049Z,7.40
2019-02-20T07:11:03.821Z,7.30
2019-02-20T07:13:44.718Z,7.30
2019-02-20T07:16:40.770Z,7.50
2019-02-20T07:19:26.718Z,7.60
2019-02-20T07:22:30.711Z,7.60
2019-02-20T07:25:21.381Z,7.70
2019-02-20T07:28:43.065Z,7.80
2019-02-20T07:31:11.828Z,7.70
2019-02-20T07:33:40.854Z,7.70
2019-02-20T07:36:09.588Z,7.80
2019-02-20T07:38:37.992Z,7.90
2019-02-20T07:41:06.382Z,8.10
2019-02-20T07:43:35.033Z,8.20
2019-02-20T07:46:03.774Z,8.20
2019-02-20T07:48:32.777Z,8.10
2019-02-20T07:51:01.534Z,8.10
2019-02-20T07:53:30.452Z,8.20
2019-02-20T07:56:03.967Z,8.10
2019-02-20T07:58:31.072Z,8.30
2019-02-20T08:00:58.328Z,8.20
2019-02-20T08:03:25.727Z,8.30
2019-02-20T08:05:54.418Z,8.30
2019-02-20T08:08:23.171Z,8.50
2019-02-20T08:10:53.145Z,8.40
2019-02-20T08:13:21.298Z,8.60
2019-02-20T08:15:49.460Z,8.60
2019-02-20T08:18:17.965Z,8.40
2019-02-20T08:20:46.346Z,8.40
2019-02-20T08:23:19.138Z,8.70
2019-02-20T08:25:47.282Z,8.70
2019-02-20T08:28:15.944Z,9.00
2019-02-20T08:30:44.477Z,9.10
2019-02-20T08:33:13.134Z,9.00
2019-02-20T08:35:42.373Z,9.40
2019-02-20T08:38:11.001Z,9.60
2019-02-20T08:40:39.280Z,9.50
2019-02-20T08:43:07.694Z,9.50
2019-02-20T08:45:36.078Z,9.40
2019-02-20T08:48:06.747Z,9.90
2019-02-20T08:50:35.389Z,10.00
2019-02-20T08:53:03.861Z,10.20
2019-02-20T08:55:32.570Z,10.40
2019-02-20T08:58:01.497Z,10.50
2019-02-20T09:00:35.412Z,10.70
2019-02-20T09:03:03.879Z,10.90
2019-02-20T09:05:34.224Z,10.90
2019-02-20T09:08:02.808Z,10.80
2019-02-20T09:10:31.445Z,10.60
2019-02-20T09:13:05.144Z,10.50
2019-02-20T09:15:34.147Z,10.30
2019-02-20T09:18:02.858Z,10.40
2019-02-20T09:20:32.043Z,10.70
2019-02-20T09:23:00.617Z,10.40
2019-02-20T09:25:29.430Z,10.40
2019-02-20T09:27:57.607Z,10.50
2019-02-20T09:30:28.551Z,10.50
2019-02-20T09:32:56.146Z,10.60
2019-02-20T09:35:29.244Z,10.80
2019-02-20T09:37:57.715Z,10.90
2019-02-20T09:40:29.841Z,10.90
2019-02-20T09:42:58.327Z,10.70
2019-02-20T09:45:27.214Z,10.80
2019-02-20T09:47:56.723Z,11.10
2019-02-20T09:50:25.415Z,11.00
2019-02-20T09:52:53.845Z,11.10
2019-02-20T09:55:22.477Z,11.10
2019-02-20T09:57:51.463Z,11.20
2019-02-20T10:00:24.737Z,11.30
2019-02-20T10:02:53.514Z,11.60
2019-02-20T10:05:22.578Z,11.50
2019-02-20T10:07:51.762Z,11.70
2019-02-20T10:10:20.264Z,11.80
2019-02-20T10:12:50.778Z,11.90
2019-02-20T10:15:19.209Z,11.90
2019-02-20T10:17:47.965Z,11.90
2019-02-20T10:20:16.341Z,11.90
2019-02-20T10:22:45.125Z,12.00
2019-02-20T10:25:13.357Z,11.80
2019-02-20T10:27:43.415Z,11.80
2019-02-20T10:30:13.497Z,11.80
2019-02-20T10:32:41.841Z,12.00
2019-02-20T10:35:10.603Z,12.10
2019-02-20T10:37:41.869Z,12.10
2019-02-20T10:40:09.994Z,12.10
2019-02-20T10:42:38.638Z,12.30
2019-02-20T10:45:07.044Z,12.30
2019-02-20T10:47:35.438Z,12.30
2019-02-20T10:50:04.365Z,12.10
2019-02-20T10:52:36.769Z,12.30
2019-02-20T10:55:05.065Z,12.40
2019-02-20T10:57:33.465Z,12.40
2019-02-20T11:00:01.824Z,12.50
2019-02-20T11:02:30.315Z,12.70
2019-02-20T11:05:01.539Z,12.80
2019-02-20T11:07:30.367Z,13.00
2019-02-20T11:09:59.102Z,12.90
2019-02-20T11:12:27.766Z,13.10
2019-02-20T11:14:56.277Z,13.20
2019-02-20T11:17:25.858Z,13.60
2019-02-20T11:19:54.103Z,13.80
2019-02-20T11:22:22.791Z,13.90
2019-02-20T11:24:51.174Z,14.00
2019-02-20T11:27:19.518Z,14.30
2019-02-20T11:29:49.339Z,14.60
2019-02-20T11:32:18.373Z,14.90
2019-02-20T11:34:46.529Z,15.00
2019-02-20T11:37:15.178Z,15.20
2019-02-20T11:39:43.846Z,15.00
2019-02-20T11:42:14.977Z,14.60
2019-02-20T11:44:43.606Z,14.50
2019-02-20T11:47:11.746Z,14.30
2019-02-20T11:49:40.645Z,14.30
2019-02-20T11:52:09.154Z,14.20
2019-02-20T11:54:42.472Z,13.90
2019-02-20T11:57:10.869Z,13.70
2019-02-20T11:59:39.631Z,13.80
2019-02-20T12:02:08.123Z,13.70
2019-02-20T12:04:36.857Z,13.60
2019-02-20T12:07:08.226Z,13.50
2019-02-20T12:09:36.219Z,13.40
2019-02-20T12:12:04.677Z,13.40
2019-02-20T12:14:32.667Z,13.40
2019-02-20T12:17:00.770Z,13.50
2019-02-20T12:19:30.352Z,13.70
2019-02-20T12:21:58.365Z,13.80
2019-02-20T12:24:26.393Z,13.90
2019-02-20T12:26:54.657Z,13.90
2019-02-20T12:29:22.663Z,13.80
2019-02-20T12:31:53.913Z,13.90
2019-02-20T12:34:21.850Z,14.10
2019-02-20T12:36:49.987Z,14.20
2019-02-20T12:39:17.980Z,14.30
2019-02-20T12:41:48.254Z,14.40
2019-02-20T12:44:20.454Z,14.40
2019-02-20T12:46:48.793Z,14.30
2019-02-20T12:49:16.806Z,14.10
2019-02-20T12:51:44.966Z,14.00
2019-02-20T12:54:12.887Z,14.20
2019-02-20T12:56:45.170Z,14.50
2019-02-20T12:59:13.195Z,14.80
2019-02-20T13:01:41.089Z,15.10
2019-02-20T13:04:09.261Z,15.10
2019-02-20T13:06:37.402Z,14.50
2019-02-20T13:09:13.059Z,14.30
2019-02-20T13:11:41.061Z,14.10
2019-02-20T13:14:08.954Z,14.10
2019-02-20T13:16:36.836Z,14.30
2019-02-20T13:19:04.746Z,14.50
2019-02-20T13:21:33.865Z,14.50
2019-02-20T13:24:01.914Z,14.10
2019-02-20T13:26:29.909Z,13.80
2019-02-20T13:28:57.917Z,13.60
2019-02-20T13:31:26.181Z,13.60
2019-02-20T13:33:58.217Z,13.70
2019-02-20T13:36:26.093Z,13.80
2019-02-20T13:38:53.993Z,13.80
2019-02-20T13:41:21.861Z,13.90
2019-02-20T13:43:49.770Z,14.00
2019-02-20T13:46:17.714Z,13.90
2019-02-20T13:48:45.766Z,13.90
2019-02-20T13:51:13.667Z,13.90
2019-02-20T13:53:46.375Z,14.00
2019-02-20T13:56:11.766Z,13.80
2019-02-20T13:58:39.853Z,13.90
2019-02-20T14:01:07.749Z,13.90
2019-02-20T14:03:35.633Z,14.10
2019-02-20T14:06:03.632Z,14.20
2019-02-20T14:08:31.518Z,14.20
2019-02-20T14:10:59.691Z,14.10
2019-02-20T14:13:27.898Z,14.10
2019-02-20T14:15:55.792Z,14.00
2019-02-20T14:18:23.811Z,14.00
2019-02-20T14:20:53.117Z,14.00
2019-02-20T14:23:21.178Z,14.10
2019-02-20T14:25:49.304Z,14.10
2019-02-20T14:28:17.188Z,14.10
2019-02-20T14:30:45.785Z,14.20
2019-02-20T14:33:13.681Z,14.10
2019-02-20T14:35:42.062Z,14.10
2019-02-20T14:38:09.953Z,14.20
2019-02-20T14:40:38.097Z,14.10
2019-02-20T14:43:06.214Z,14.00
2019-02-20T14:45:34.287Z,14.00
2019-02-20T14:48:02.661Z,13.90
2019-02-20T14:50:30.822Z,13.60
2019-02-20T14:52:58.820Z,13.60
2019-02-20T14:55:26.756Z,13.50
2019-02-20T14:57:54.733Z,13.50
2019-02-20T15:00:22.849Z,13.50
2019-02-20T15:02:50.735Z,13.40
2019-02-20T15:05:19.063Z,13.50
2019-02-20T15:07:47.168Z,13.50
2019-02-20T15:10:15.187Z,13.60
2019-02-20T15:12:43.208Z,13.60
2019-02-20T15:15:11.497Z,13.40
2019-02-20T15:17:39.519Z,13.40
2019-02-20T15:20:07.754Z,13.50
2019-02-20T15:22:36.226Z,13.50
2019-02-20T15:25:04.244Z,13.60
2019-02-20T15:27:32.382Z,13.30
2019-02-20T15:30:00.355Z,13.30
2019-02-20T15:32:28.770Z,13.20
2019-02-20T15:34:56.666Z,13.30
2019-02-20T15:37:29.561Z,13.30
2019-02-20T15:39:57.658Z,13.20
2019-02-20T15:42:25.653Z,13.10
2019-02-20T15:44:53.660Z,13.10
2019-02-20T15:47:21.670Z,13.00
2019-02-20T15:49:53.677Z,12.80
2019-02-20T15:52:21.603Z,12.80
2019-02-20T15:54:49.790Z,12.80
2019-02-20T15:57:18.160Z,12.90
2019-02-20T15:59:46.262Z,12.80
2019-02-20T16:02:18.514Z,12.70
2019-02-20T16:04:50.090Z,12.70
2019-02-20T16:07:17.119Z,12.70
2019-02-20T16:09:45.485Z,12.60
2019-02-20T16:12:13.462Z,12.50
2019-02-20T16:14:43.472Z,12.40
2019-02-20T16:17:11.662Z,12.30
2019-02-20T16:19:39.782Z,12.30
2019-02-20T16:22:07.922Z,12.30
2019-02-20T16:24:35.820Z,12.10
2019-02-20T16:27:04.014Z,12.10
2019-02-20T16:29:34.558Z,12.10
2019-02-20T16:32:02.659Z,12.10
2019-02-20T16:34:30.843Z,12.10
2019-02-20T16:36:58.814Z,11.90
2019-02-20T16:39:26.934Z,12.00
2019-02-20T16:41:54.850Z,12.00
2019-02-20T16:44:23.614Z,12.00
2019-02-20T16:46:51.730Z,11.90
2019-02-20T16:49:19.921Z,11.90
2019-02-20T16:51:48.167Z,11.90
2019-02-20T16:54:16.293Z,11.90
2019-02-20T16:56:44.887Z,11.90
2019-02-20T16:59:13.065Z,11.80
2019-02-20T17:01:41.533Z,11.80
2019-02-20T17:04:09.494Z,11.70
2019-02-20T17:06:37.551Z,11.70
2019-02-20T17:09:06.482Z,11.60
2019-02-20T17:11:38.335Z,11.50
2019-02-20T17:14:06.719Z,11.50
2019-02-20T17:16:34.802Z,11.50
2019-02-20T17:19:02.805Z,11.40
2019-02-20T17:21:30.794Z,11.40
2019-02-20T17:23:58.803Z,11.40
2019-02-20T17:26:32.200Z,11.30
2019-02-20T17:29:00.274Z,11.30
2019-02-20T17:31:28.594Z,11.40
2019-02-20T17:33:57.161Z,11.40
2019-02-20T17:36:25.161Z,11.30
2019-02-20T17:38:53.207Z,11.40
2019-02-20T17:41:21.135Z,11.20
2019-02-20T17:43:49.273Z,11.30
2019-02-20T17:46:18.648Z,11.20
2019-02-20T17:48:53.093Z,11.30
2019-02-20T17:51:20.237Z,11.40
2019-02-20T17:53:48.224Z,11.40
2019-02-20T17:56:16.129Z,11.30
2019-02-20T17:58:44.018Z,11.30
2019-02-20T18:01:16.315Z,11.30
2019-02-20T18:03:44.336Z,11.20
2019-02-20T18:06:12.774Z,11.10
2019-02-20T18:08:40.853Z,11.10
2019-02-20T18:11:09.471Z,11.10
2019-02-20T18:13:37.414Z,11.10
2019-02-20T18:16:05.445Z,11.00
2019-02-20T18:18:33.577Z,11.00
2019-02-20T18:21:01.677Z,11.00
2019-02-20T18:23:30.045Z,11.00
2019-02-20T18:25:58.179Z,11.00
2019-02-20T18:28:26.095Z,11.00
2019-02-20T18:30:54.772Z,11.00
2019-02-20T18:33:23.527Z,11.00
2019-02-20T18:35:52.105Z,10.90
2019-02-20T18:38:20.666Z,10.80
2019-02-20T18:40:49.139Z,10.80
2019-02-20T18:43:17.379Z,10.70
2019-02-20T18:45:46.286Z,10.60
2019-02-20T18:48:14.835Z,10.60
2019-02-20T18:50:43.335Z,10.50
2019-02-20T18:53:11.521Z,10.40
2019-02-20T18:55:40.297Z,10.30
2019-02-20T18:58:09.126Z,10.20
2019-02-20T19:00:37.530Z,10.10
2019-02-20T19:03:05.739Z,10.10
2019-02-20T19:05:33.884Z,10.00
2019-02-20T19:08:30.163Z,9.80
2019-02-20T19:11:00.511Z,9.80
2019-02-20T19:14:10.180Z,9.80
2019-02-20T19:17:35.081Z,9.80
2019-02-20T19:20:32.001Z,9.80
2019-02-20T19:23:36.406Z,9.70
2019-02-20T19:26:28.929Z,9.60
2019-02-20T19:29:38.520Z,9.50
2019-02-20T19:32:40.873Z,9.40
2019-02-20T19:35:32.301Z,9.40
2019-02-20T19:38:23.583Z,9.30
2019-02-20T19:41:25.064Z,9.20
2019-02-20T19:44:37.015Z,9.20
2019-02-20T19:47:28.997Z,9.30
2019-02-20T19:50:33.215Z,9.30
2019-02-20T19:53:40.191Z,9.30
2019-02-20T19:56:31.574Z,9.30
2019-02-20T19:59:30.792Z,9.40
2019-02-20T20:02:38.362Z,9.30
2019-02-20T20:05:45.860Z,9.30
2019-02-20T20:08:25.487Z,9.40
2019-02-20T20:11:12.963Z,9.50
2019-02-20T20:14:23.244Z,9.30
2019-02-20T20:17:48.612Z,9.50
2019-02-20T20:20:53.587Z,9.40
2019-02-20T20:24:05.606Z,9.50
2019-02-20T20:27:01.910Z,9.50
2019-02-20T20:30:02.170Z,9.60
2019-02-20T20:32:52.103Z,9.60
2019-02-20T20:35:40.308Z,9.60
2019-02-20T20:38:18.102Z,9.60
2019-02-20T20:41:26.925Z,9.50
2019-02-20T20:44:27.618Z,9.70
2019-02-20T20:47:25.250Z,9.60
2019-02-20T20:50:07.897Z,9.60
2019-02-20T20:53:09.482Z,9.50
2019-02-20T20:55:56.402Z,9.60
2019-02-20T20:59:17.562Z,9.50
2019-02-20T21:01:55.963Z,9.50
2019-02-20T21:05:17.844Z,9.40
2019-02-20T21:08:05.835Z,9.50
2019-02-20T21:11:28.561Z,9.30
2019-02-20T21:14:14.562Z,9.30
2019-02-20T21:18:18.235Z,9.20
2019-02-20T21:21:37.181Z,9.30
2019-02-20T21:24:34.566Z,9.20
2019-02-20T21:27:51.310Z,9.10
2019-02-20T21:30:52.145Z,9.00
2019-02-20T21:33:57.309Z,9.00
2019-02-20T21:37:08.517Z,9.00
2019-02-20T21:40:03.698Z,9.10
2019-02-20T21:43:37.433Z,8.90
2019-02-20T21:47:01.628Z,9.00
2019-02-20T21:49:55.857Z,8.90
2019-02-20T21:52:38.590Z,8.90
2019-02-20T21:55:53.341Z,9.00
2019-02-20T21:58:35.121Z,9.00
2019-02-20T22:01:20.234Z,8.80
2019-02-20T22:04:07.272Z,9.00
2019-02-20T22:06:53.265Z,8.80
2019-02-20T22:09:31.099Z,8.90
2019-02-20T22:12:50.682Z,8.80
2019-02-20T22:15:38.566Z,8.70
2019-02-20T22:18:39.950Z,8.70
2019-02-20T22:22:02.823Z,8.80
2019-02-20T22:24:44.342Z,8.80
2019-02-20T22:27:44.913Z,8.80
2019-02-20T22:30:52.201Z,8.80
2019-02-20T22:34:04.783Z,8.70
2019-02-20T22:36:59.428Z,8.60
2019-02-20T22:40:02.469Z,8.50
2019-02-20T22:43:00.537Z,8.60
2019-02-20T22:45:55.874Z,8.60
2019-02-20T22:49:02.407Z,8.50
2019-02-20T22:52:29.868Z,8.50
2019-02-20T22:55:33.883Z,8.50
2019-02-20T22:58:22.220Z,8.40
2019-02-20T23:01:17.418Z,8.50
2019-02-20T23:03:53.754Z,8.60
2019-02-20T23:07:09.733Z,8.60
2019-02-20T23:10:22.050Z,8.70
2019-02-20T23:13:07.374Z,8.60
2019-02-20T23:15:35.672Z,8.70
2019-02-20T23:18:03.461Z,8.70
2019-02-20T23:20:31.345Z,8.80
2019-02-20T23:22:59.258Z,8.70
2019-02-20T23:25:26.805Z,8.80
2019-02-20T23:27:55.224Z,8.70
2019-02-20T23:30:24.497Z,8.70
2019-02-20T23:32:52.978Z,8.80
2019-02-20T23:35:21.386Z,8.70
2019-02-20T23:37:50.013Z,8.80
2019-02-20T23:40:18.637Z,8.80
2019-02-20T23:42:49.085Z,8.90
2019-02-20T23:45:17.668Z,8.90
2019-02-20T23:47:46.438Z,8.90
2019-02-20T23:50:14.905Z,8.90
2019-02-20T23:52:43.298Z,9.00
2019-02-20T23:55:11.918Z,8.90
2019-02-20T23:57:40.297Z,9.00
